Coningsby, United Kingdom
Current Conditions -  °F | °C
As of 3:50 AM on Monday 24 Nov 2014 (Local Time) from EGXC Reporting Station
Clear Clear  
Wind Chill: 29°   Ceiling: Unl
Heat Index: 34°   Visibility: 6mi
Dew Point: 34°   Wind: 6mph
Humidity: 100%   Direction: 250°WSW
Pressure: 30.18"   Gusts: NA
Location:  53.11°N, 0.18°W
Report Text: EGXC 240350Z 25005KT CAVOK 01/01 Q1022 BLU
Loading
Personal Weather Stations






























Interactive Weather Map New forecast layout! Learn more

10-Day Weather Forecast

Advertisements
Track Severe Weather on mobile